sensor_id;sensor_type;location;lat;lon;timestamp;P1;durP1;ratioP1;P2;durP2;ratioP2
61642;SDS011;47551;52.506;4.678;2024-03-17T00:00:20;11.88;;;5.88;;
61642;SDS011;47551;52.506;4.678;2024-03-17T00:00:40;13.63;;;6.03;;
61642;SDS011;47551;52.506;4.678;2024-03-17T00:01:01;12.10;;;6.10;;
61642;SDS011;47551;52.506;4.678;2024-03-17T00:01:21;10.32;;;5.93;;
61642;SDS011;47551;52.506;4.678;2024-03-17T00:01:41;10.57;;;5.80;;
61642;SDS011;47551;52.506;4.678;2024-03-17T00:02:02;11.53;;;6.20;;
61642;SDS011;47551;52.506;4.678;2024-03-17T00:02:22;11.50;;;5.65;;
61642;SDS011;47551;52.506;4.678;2024-03-17T00:02:42;11.30;;;5.73;;
61642;SDS011;47551;52.506;4.678;2024-03-17T00:03:02;11.03;;;6.13;;
61642;SDS011;47551;52.506;4.678;2024-03-17T00:03:22;12.77;;;6.10;;
61642;SDS011;47551;52.506;4.678;2024-03-17T00:03:43;12.02;;;5.97;;
61642;SDS011;47551;52.506;4.678;2024-03-17T00:04:03;11.70;;;6.00;;
61642;SDS011;47551;52.506;4.678;2024-03-17T00:04:23;13.20;;;6.13;;
61642;SDS011;47551;52.506;4.678;2024-03-17T00:04:44;13.40;;;6.10;;
61642;SDS011;47551;52.506;4.678;2024-03-17T00:05:05;12.95;;;7.05;;
61642;SDS011;47551;52.506;4.678;2024-03-17T00:05:25;14.47;;;7.60;;
61642;SDS011;47551;52.506;4.678;2024-03-17T00:05:45;15.30;;;8.60;;
61642;SDS011;47551;52.506;4.678;2024-03-17T00:06:05;15.68;;;8.98;;
61642;SDS011;47551;52.506;4.678;2024-03-17T00:06:25;14.13;;;9.10;;
61642;SDS011;47551;52.506;4.678;2024-03-17T00:06:46;13.70;;;8.60;;
61642;SDS011;47551;52.506;4.678;2024-03-17T00:07:06;15.03;;;8.90;;
61642;SDS011;47551;52.506;4.678;2024-03-17T00:07:26;15.10;;;8.90;;
61642;SDS011;47551;52.506;4.678;2024-03-17T00:07:46;15.27;;;8.67;;
61642;SDS011;47551;52.506;4.678;2024-03-17T00:08:06;16.07;;;8.67;;
61642;SDS011;47551;52.506;4.678;2024-03-17T00:08:27;15.13;;;8.87;;
61642;SDS011;47551;52.506;4.678;2024-03-17T00:08:47;14.10;;;8.90;;
61642;SDS011;47551;52.506;4.678;2024-03-17T00:09:07;13.83;;;8.60;;
61642;SDS011;47551;52.506;4.678;2024-03-17T00:09:29;15.45;;;8.30;;
61642;SDS011;47551;52.506;4.678;2024-03-17T00:09:49;15.73;;;8.03;;
61642;SDS011;47551;52.506;4.678;2024-03-17T00:10:09;15.30;;;7.97;;
61642;SDS011;47551;52.506;4.678;2024-03-17T00:10:33;15.45;;;7.40;;
61642;SDS011;47551;52.506;4.678;2024-03-17T00:10:54;13.52;;;6.93;;
61642;SDS011;47551;52.506;4.678;2024-03-17T00:11:14;11.97;;;6.70;;
61642;SDS011;47551;52.506;4.678;2024-03-17T00:11:35;11.95;;;6.80;;
61642;SDS011;47551;52.506;4.678;2024-03-17T00:11:55;12.43;;;6.70;;
61642;SDS011;47551;52.506;4.678;2024-03-17T00:12:15;12.93;;;6.40;;
61642;SDS011;47551;52.506;4.678;2024-03-17T00:12:36;13.60;;;6.47;;
61642;SDS011;47551;52.506;4.678;2024-03-17T00:12:56;11.02;;;6.40;;
61642;SDS011;47551;52.506;4.678;2024-03-17T00:13:18;12.98;;;6.55;;
61642;SDS011;47551;52.506;4.678;2024-03-17T00:13:38;14.00;;;6.70;;
61642;SDS011;47551;52.506;4.678;2024-03-17T00:13:58;11.25;;;6.40;;
61642;SDS011;47551;52.506;4.678;2024-03-17T00:14:18;11.10;;;6.00;;
61642;SDS011;47551;52.506;4.678;2024-03-17T00:14:38;11.80;;;6.10;;
61642;SDS011;47551;52.506;4.678;2024-03-17T00:14:59;11.77;;;6.33;;
61642;SDS011;47551;52.506;4.678;2024-03-17T00:15:19;11.25;;;6.35;;
61642;SDS011;47551;52.506;4.678;2024-03-17T00:15:39;11.27;;;6.23;;
61642;SDS011;47551;52.506;4.678;2024-03-17T00:15:59;11.13;;;6.20;;
61642;SDS011;47551;52.506;4.678;2024-03-17T00:16:20;11.35;;;6.20;;
61642;SDS011;47551;52.506;4.678;2024-03-17T00:16:40;11.60;;;6.30;;
61642;SDS011;47551;52.506;4.678;2024-03-17T00:17:01;12.17;;;6.10;;
61642;SDS011;47551;52.506;4.678;2024-03-17T00:17:21;12.63;;;6.00;;
61642;SDS011;47551;52.506;4.678;2024-03-17T00:17:41;12.20;;;5.83;;
61642;SDS011;47551;52.506;4.678;2024-03-17T00:18:01;11.53;;;5.67;;
61642;SDS011;47551;52.506;4.678;2024-03-17T00:18:22;14.10;;;5.83;;
61642;SDS011;47551;52.506;4.678;2024-03-17T00:18:42;12.70;;;6.10;;
61642;SDS011;47551;52.506;4.678;2024-03-17T00:19:02;12.50;;;6.00;;
61642;SDS011;47551;52.506;4.678;2024-03-17T00:19:23;12.67;;;6.03;;
61642;SDS011;47551;52.506;4.678;2024-03-17T00:19:43;11.93;;;6.22;;
61642;SDS011;47551;52.506;4.678;2024-03-17T00:20:03;10.75;;;5.95;;
61642;SDS011;47551;52.506;4.678;2024-03-17T00:20:28;11.18;;;6.05;;
61642;SDS011;47551;52.506;4.678;2024-03-17T00:20:50;11.57;;;5.90;;
61642;SDS011;47551;52.506;4.678;2024-03-17T00:21:10;11.70;;;5.70;;
61642;SDS011;47551;52.506;4.678;2024-03-17T00:21:30;12.07;;;6.03;;
61642;SDS011;47551;52.506;4.678;2024-03-17T00:21:50;13.83;;;6.13;;
61642;SDS011;47551;52.506;4.678;2024-03-17T00:22:11;11.87;;;5.97;;
61642;SDS011;47551;52.506;4.678;2024-03-17T00:22:33;13.00;;;6.18;;
61642;SDS011;47551;52.506;4.678;2024-03-17T00:22:57;11.88;;;5.90;;
61642;SDS011;47551;52.506;4.678;2024-03-17T00:23:17;11.80;;;6.10;;
61642;SDS011;47551;52.506;4.678;2024-03-17T00:23:37;11.83;;;5.97;;
61642;SDS011;47551;52.506;4.678;2024-03-17T00:23:57;11.60;;;5.83;;
61642;SDS011;47551;52.506;4.678;2024-03-17T00:24:18;12.03;;;5.97;;
61642;SDS011;47551;52.506;4.678;2024-03-17T00:24:45;12.30;;;6.00;;
61642;SDS011;47551;52.506;4.678;2024-03-17T00:25:06;10.48;;;6.05;;
61642;SDS011;47551;52.506;4.678;2024-03-17T00:25:26;12.73;;;6.22;;
61642;SDS011;47551;52.506;4.678;2024-03-17T00:25:47;12.20;;;5.93;;
61642;SDS011;47551;52.506;4.678;2024-03-17T00:26:07;10.67;;;5.70;;
61642;SDS011;47551;52.506;4.678;2024-03-17T00:26:28;11.15;;;5.82;;
61642;SDS011;47551;52.506;4.678;2024-03-17T00:26:49;13.35;;;6.07;;
61642;SDS011;47551;52.506;4.678;2024-03-17T00:27:09;12.57;;;5.60;;
61642;SDS011;47551;52.506;4.678;2024-03-17T00:27:31;12.88;;;5.53;;
61642;SDS011;47551;52.506;4.678;2024-03-17T00:27:51;12.33;;;5.70;;
61642;SDS011;47551;52.506;4.678;2024-03-17T00:28:15;11.73;;;5.72;;
61642;SDS011;47551;52.506;4.678;2024-03-17T00:28:35;11.07;;;5.90;;
61642;SDS011;47551;52.506;4.678;2024-03-17T00:28:55;10.63;;;6.00;;
61642;SDS011;47551;52.506;4.678;2024-03-17T00:29:15;11.10;;;6.13;;
61642;SDS011;47551;52.506;4.678;2024-03-17T00:29:36;12.03;;;5.97;;
61642;SDS011;47551;52.506;4.678;2024-03-17T00:29:56;11.95;;;5.57;;
61642;SDS011;47551;52.506;4.678;2024-03-17T00:30:16;9.77;;;5.40;;
61642;SDS011;47551;52.506;4.678;2024-03-17T00:30:36;11.57;;;5.67;;
61642;SDS011;47551;52.506;4.678;2024-03-17T00:30:56;12.43;;;5.57;;
61642;SDS011;47551;52.506;4.678;2024-03-17T00:31:16;12.60;;;5.88;;
61642;SDS011;47551;52.506;4.678;2024-03-17T00:31:37;11.90;;;5.90;;
61642;SDS011;47551;52.506;4.678;2024-03-17T00:31:57;12.33;;;5.80;;
61642;SDS011;47551;52.506;4.678;2024-03-17T00:32:17;11.63;;;5.63;;
61642;SDS011;47551;52.506;4.678;2024-03-17T00:32:41;12.37;;;5.80;;
61642;SDS011;47551;52.506;4.678;2024-03-17T00:33:01;12.00;;;5.75;;
61642;SDS011;47551;52.506;4.678;2024-03-17T00:33:21;11.00;;;5.35;;
61642;SDS011;47551;52.506;4.678;2024-03-17T00:33:41;9.80;;;5.50;;
61642;SDS011;47551;52.506;4.678;2024-03-17T00:34:02;10.13;;;5.57;;
61642;SDS011;47551;52.506;4.678;2024-03-17T00:34:22;10.23;;;5.80;;
61642;SDS011;47551;52.506;4.678;2024-03-17T00:34:42;9.80;;;5.70;;
61642;SDS011;47551;52.506;4.678;2024-03-17T00:35:02;10.73;;;5.80;;
61642;SDS011;47551;52.506;4.678;2024-03-17T00:35:24;10.77;;;5.35;;
61642;SDS011;47551;52.506;4.678;2024-03-17T00:35:45;10.75;;;5.70;;
61642;SDS011;47551;52.506;4.678;2024-03-17T00:36:05;10.93;;;6.00;;
61642;SDS011;47551;52.506;4.678;2024-03-17T00:36:25;9.83;;;5.60;;
61642;SDS011;47551;52.506;4.678;2024-03-17T00:36:46;11.25;;;5.70;;
61642;SDS011;47551;52.506;4.678;2024-03-17T00:37:06;12.57;;;5.53;;
61642;SDS011;47551;52.506;4.678;2024-03-17T00:37:26;12.03;;;5.60;;
61642;SDS011;47551;52.506;4.678;2024-03-17T00:37:47;11.73;;;5.70;;
61642;SDS011;47551;52.506;4.678;2024-03-17T00:38:07;12.10;;;5.55;;
61642;SDS011;47551;52.506;4.678;2024-03-17T00:38:30;11.32;;;5.80;;
61642;SDS011;47551;52.506;4.678;2024-03-17T00:38:50;12.20;;;5.60;;
61642;SDS011;47551;52.506;4.678;2024-03-17T00:39:12;11.75;;;5.47;;
61642;SDS011;47551;52.506;4.678;2024-03-17T00:39:32;11.73;;;5.30;;
61642;SDS011;47551;52.506;4.678;2024-03-17T00:39:52;11.70;;;5.40;;
61642;SDS011;47551;52.506;4.678;2024-03-17T00:40:12;11.73;;;5.50;;
61642;SDS011;47551;52.506;4.678;2024-03-17T00:40:33;12.47;;;5.40;;
61642;SDS011;47551;52.506;4.678;2024-03-17T00:40:53;10.47;;;5.30;;
61642;SDS011;47551;52.506;4.678;2024-03-17T00:41:13;11.48;;;5.47;;
61642;SDS011;47551;52.506;4.678;2024-03-17T00:41:33;11.97;;;5.60;;
61642;SDS011;47551;52.506;4.678;2024-03-17T00:41:54;11.23;;;5.23;;
61642;SDS011;47551;52.506;4.678;2024-03-17T00:42:14;9.35;;;5.03;;
61642;SDS011;47551;52.506;4.678;2024-03-17T00:42:34;10.27;;;5.20;;
61642;SDS011;47551;52.506;4.678;2024-03-17T00:42:54;10.03;;;5.00;;
61642;SDS011;47551;52.506;4.678;2024-03-17T00:43:14;11.23;;;5.53;;
61642;SDS011;47551;52.506;4.678;2024-03-17T00:43:34;11.57;;;5.57;;
61642;SDS011;47551;52.506;4.678;2024-03-17T00:43:56;10.73;;;5.35;;
61642;SDS011;47551;52.506;4.678;2024-03-17T00:44:17;13.67;;;5.37;;
61642;SDS011;47551;52.506;4.678;2024-03-17T00:44:37;11.37;;;5.37;;
61642;SDS011;47551;52.506;4.678;2024-03-17T00:44:57;13.63;;;5.50;;
61642;SDS011;47551;52.506;4.678;2024-03-17T00:45:19;12.00;;;5.22;;
61642;SDS011;47551;52.506;4.678;2024-03-17T00:45:40;10.77;;;5.57;;
61642;SDS011;47551;52.506;4.678;2024-03-17T00:46:00;11.60;;;5.23;;
61642;SDS011;47551;52.506;4.678;2024-03-17T00:46:21;11.80;;;5.32;;
61642;SDS011;47551;52.506;4.678;2024-03-17T00:46:41;11.20;;;5.30;;
61642;SDS011;47551;52.506;4.678;2024-03-17T00:47:02;10.90;;;5.45;;
61642;SDS011;47551;52.506;4.678;2024-03-17T00:47:22;11.38;;;5.60;;
61642;SDS011;47551;52.506;4.678;2024-03-17T00:47:42;11.57;;;5.63;;
61642;SDS011;47551;52.506;4.678;2024-03-17T00:48:04;10.48;;;5.50;;
61642;SDS011;47551;52.506;4.678;2024-03-17T00:48:26;11.75;;;5.20;;
61642;SDS011;47551;52.506;4.678;2024-03-17T00:48:49;10.93;;;4.90;;
61642;SDS011;47551;52.506;4.678;2024-03-17T00:49:10;9.55;;;4.90;;
61642;SDS011;47551;52.506;4.678;2024-03-17T00:49:30;10.63;;;5.30;;
61642;SDS011;47551;52.506;4.678;2024-03-17T00:49:50;11.47;;;5.07;;
61642;SDS011;47551;52.506;4.678;2024-03-17T00:50:11;10.00;;;4.87;;
61642;SDS011;47551;52.506;4.678;2024-03-17T00:50:31;9.98;;;5.10;;
61642;SDS011;47551;52.506;4.678;2024-03-17T00:50:57;9.73;;;5.00;;
61642;SDS011;47551;52.506;4.678;2024-03-17T00:51:18;10.50;;;4.95;;
61642;SDS011;47551;52.506;4.678;2024-03-17T00:51:38;9.53;;;4.93;;
61642;SDS011;47551;52.506;4.678;2024-03-17T00:51:58;8.80;;;4.60;;
61642;SDS011;47551;52.506;4.678;2024-03-17T00:52:18;10.10;;;4.90;;
61642;SDS011;47551;52.506;4.678;2024-03-17T00:52:39;10.93;;;4.90;;
61642;SDS011;47551;52.506;4.678;2024-03-17T00:52:59;11.17;;;4.90;;
61642;SDS011;47551;52.506;4.678;2024-03-17T00:53:20;10.18;;;4.70;;
61642;SDS011;47551;52.506;4.678;2024-03-17T00:53:41;10.05;;;4.93;;
61642;SDS011;47551;52.506;4.678;2024-03-17T00:54:01;9.32;;;5.10;;
61642;SDS011;47551;52.506;4.678;2024-03-17T00:54:22;9.67;;;4.60;;
61642;SDS011;47551;52.506;4.678;2024-03-17T00:54:42;9.73;;;4.63;;
61642;SDS011;47551;52.506;4.678;2024-03-17T00:55:03;9.27;;;4.53;;
61642;SDS011;47551;52.506;4.678;2024-03-17T00:55:23;12.50;;;5.10;;
61642;SDS011;47551;52.506;4.678;2024-03-17T00:55:43;10.70;;;4.83;;
61642;SDS011;47551;52.506;4.678;2024-03-17T00:56:03;12.00;;;4.83;;
61642;SDS011;47551;52.506;4.678;2024-03-17T00:56:24;11.35;;;4.80;;
61642;SDS011;47551;52.506;4.678;2024-03-17T00:56:45;9.63;;;4.80;;
61642;SDS011;47551;52.506;4.678;2024-03-17T00:57:05;10.17;;;5.00;;
61642;SDS011;47551;52.506;4.678;2024-03-17T00:57:25;10.03;;;4.97;;
61642;SDS011;47551;52.506;4.678;2024-03-17T00:57:46;11.50;;;4.93;;
61642;SDS011;47551;52.506;4.678;2024-03-17T00:58:06;9.07;;;4.63;;
61642;SDS011;47551;52.506;4.678;2024-03-17T00:58:26;8.13;;;4.50;;
61642;SDS011;47551;52.506;4.678;2024-03-17T00:58:46;9.43;;;4.35;;
61642;SDS011;47551;52.506;4.678;2024-03-17T00:59:07;10.63;;;4.57;;
61642;SDS011;47551;52.506;4.678;2024-03-17T00:59:27;10.03;;;4.63;;
61642;SDS011;47551;52.506;4.678;2024-03-17T00:59:47;11.75;;;5.20;;
61642;SDS011;47551;52.506;4.678;2024-03-17T01:00:08;12.60;;;4.83;;
61642;SDS011;47551;52.506;4.678;2024-03-17T01:00:35;11.60;;;4.78;;
61642;SDS011;47551;52.506;4.678;2024-03-17T01:00:55;11.23;;;4.80;;
61642;SDS011;47551;52.506;4.678;2024-03-17T01:01:15;11.30;;;4.50;;
61642;SDS011;47551;52.506;4.678;2024-03-17T01:01:36;10.83;;;4.70;;
61642;SDS011;47551;52.506;4.678;2024-03-17T01:01:56;9.73;;;4.90;;
61642;SDS011;47551;52.506;4.678;2024-03-17T01:02:16;8.60;;;4.63;;
61642;SDS011;47551;52.506;4.678;2024-03-17T01:02:36;8.67;;;4.40;;
61642;SDS011;47551;52.506;4.678;2024-03-17T01:02:56;9.10;;;4.50;;
61642;SDS011;47551;52.506;4.678;2024-03-17T01:03:17;9.00;;;4.43;;
61642;SDS011;47551;52.506;4.678;2024-03-17T01:03:37;9.93;;;4.28;;
61642;SDS011;47551;52.506;4.678;2024-03-17T01:03:57;10.20;;;4.50;;
61642;SDS011;47551;52.506;4.678;2024-03-17T01:04:18;10.90;;;4.80;;
61642;SDS011;47551;52.506;4.678;2024-03-17T01:04:41;10.40;;;4.60;;
61642;SDS011;47551;52.506;4.678;2024-03-17T01:05:01;10.13;;;4.70;;
61642;SDS011;47551;52.506;4.678;2024-03-17T01:05:21;10.87;;;4.63;;
61642;SDS011;47551;52.506;4.678;2024-03-17T01:05:41;10.73;;;4.70;;
61642;SDS011;47551;52.506;4.678;2024-03-17T01:06:07;10.77;;;4.57;;
61642;SDS011;47551;52.506;4.678;2024-03-17T01:06:27;10.23;;;4.50;;
61642;SDS011;47551;52.506;4.678;2024-03-17T01:06:47;8.30;;;4.25;;
61642;SDS011;47551;52.506;4.678;2024-03-17T01:07:07;9.60;;;4.10;;
61642;SDS011;47551;52.506;4.678;2024-03-17T01:07:28;10.43;;;4.17;;
61642;SDS011;47551;52.506;4.678;2024-03-17T01:07:48;10.83;;;4.30;;
61642;SDS011;47551;52.506;4.678;2024-03-17T01:08:10;8.35;;;4.32;;
61642;SDS011;47551;52.506;4.678;2024-03-17T01:08:30;10.30;;;4.32;;
61642;SDS011;47551;52.506;4.678;2024-03-17T01:08:50;10.37;;;4.73;;
61642;SDS011;47551;52.506;4.678;2024-03-17T01:09:12;9.40;;;4.32;;
61642;SDS011;47551;52.506;4.678;2024-03-17T01:09:32;10.37;;;4.57;;
61642;SDS011;47551;52.506;4.678;2024-03-17T01:09:52;10.67;;;4.47;;
61642;SDS011;47551;52.506;4.678;2024-03-17T01:10:14;10.05;;;4.38;;
61642;SDS011;47551;52.506;4.678;2024-03-17T01:10:36;10.57;;;4.37;;
61642;SDS011;47551;52.506;4.678;2024-03-17T01:10:57;9.55;;;4.25;;
61642;SDS011;47551;52.506;4.678;2024-03-17T01:11:18;9.10;;;4.13;;
61642;SDS011;47551;52.506;4.678;2024-03-17T01:11:39;10.50;;;4.18;;
61642;SDS011;47551;52.506;4.678;2024-03-17T01:11:59;10.77;;;4.23;;
61642;SDS011;47551;52.506;4.678;2024-03-17T01:12:19;10.40;;;4.40;;
61642;SDS011;47551;52.506;4.678;2024-03-17T01:12:40;9.80;;;4.40;;
61642;SDS011;47551;52.506;4.678;2024-03-17T01:13:00;11.53;;;4.50;;
61642;SDS011;47551;52.506;4.678;2024-03-17T01:13:20;11.75;;;4.50;;
61642;SDS011;47551;52.506;4.678;2024-03-17T01:13:40;11.27;;;4.43;;
61642;SDS011;47551;52.506;4.678;2024-03-17T01:14:01;10.57;;;4.63;;
61642;SDS011;47551;52.506;4.678;2024-03-17T01:14:21;10.00;;;4.43;;
61642;SDS011;47551;52.506;4.678;2024-03-17T01:14:41;10.03;;;4.10;;
61642;SDS011;47551;52.506;4.678;2024-03-17T01:15:05;9.30;;;4.30;;
61642;SDS011;47551;52.506;4.678;2024-03-17T01:15:25;9.20;;;4.38;;
61642;SDS011;47551;52.506;4.678;2024-03-17T01:15:50;10.50;;;4.30;;
61642;SDS011;47551;52.506;4.678;2024-03-17T01:16:11;11.73;;;4.40;;
61642;SDS011;47551;52.506;4.678;2024-03-17T01:16:31;9.57;;;4.30;;
61642;SDS011;47551;52.506;4.678;2024-03-17T01:16:51;11.20;;;4.33;;
61642;SDS011;47551;52.506;4.678;2024-03-17T01:17:12;11.88;;;4.32;;
61642;SDS011;47551;52.506;4.678;2024-03-17T01:17:32;10.80;;;4.30;;
61642;SDS011;47551;52.506;4.678;2024-03-17T01:17:52;9.40;;;4.30;;
61642;SDS011;47551;52.506;4.678;2024-03-17T01:18:12;9.80;;;4.23;;
61642;SDS011;47551;52.506;4.678;2024-03-17T01:18:33;9.40;;;4.15;;
61642;SDS011;47551;52.506;4.678;2024-03-17T01:18:54;9.95;;;4.10;;
61642;SDS011;47551;52.506;4.678;2024-03-17T01:19:15;9.43;;;4.30;;
61642;SDS011;47551;52.506;4.678;2024-03-17T01:19:35;11.10;;;4.13;;
61642;SDS011;47551;52.506;4.678;2024-03-17T01:19:55;11.33;;;4.20;;
61642;SDS011;47551;52.506;4.678;2024-03-17T01:20:15;9.27;;;4.15;;
61642;SDS011;47551;52.506;4.678;2024-03-17T01:20:36;9.90;;;4.10;;
61642;SDS011;47551;52.506;4.678;2024-03-17T01:20:57;10.80;;;4.15;;
61642;SDS011;47551;52.506;4.678;2024-03-17T01:21:17;8.03;;;4.00;;
61642;SDS011;47551;52.506;4.678;2024-03-17T01:21:37;9.60;;;3.93;;
61642;SDS011;47551;52.506;4.678;2024-03-17T01:21:59;10.57;;;4.30;;
61642;SDS011;47551;52.506;4.678;2024-03-17T01:22:20;10.35;;;4.10;;
61642;SDS011;47551;52.506;4.678;2024-03-17T01:22:40;9.63;;;4.30;;
61642;SDS011;47551;52.506;4.678;2024-03-17T01:23:00;9.13;;;4.40;;
61642;SDS011;47551;52.506;4.678;2024-03-17T01:23:21;10.17;;;4.40;;
61642;SDS011;47551;52.506;4.678;2024-03-17T01:23:41;10.10;;;4.53;;
61642;SDS011;47551;52.506;4.678;2024-03-17T01:24:01;11.43;;;4.27;;
61642;SDS011;47551;52.506;4.678;2024-03-17T01:24:21;10.40;;;4.13;;
61642;SDS011;47551;52.506;4.678;2024-03-17T01:24:42;9.30;;;4.18;;
61642;SDS011;47551;52.506;4.678;2024-03-17T01:25:06;12.32;;;4.35;;
61642;SDS011;47551;52.506;4.678;2024-03-17T01:25:27;11.32;;;4.22;;
61642;SDS011;47551;52.506;4.678;2024-03-17T01:25:47;10.77;;;4.13;;
61642;SDS011;47551;52.506;4.678;2024-03-17T01:26:07;10.57;;;4.33;;
61642;SDS011;47551;52.506;4.678;2024-03-17T01:26:28;11.43;;;4.30;;
61642;SDS011;47551;52.506;4.678;2024-03-17T01:26:48;9.87;;;4.03;;
61642;SDS011;47551;52.506;4.678;2024-03-17T01:27:09;8.85;;;3.83;;
61642;SDS011;47551;52.506;4.678;2024-03-17T01:27:34;10.80;;;3.72;;
61642;SDS011;47551;52.506;4.678;2024-03-17T01:27:54;11.13;;;4.10;;
61642;SDS011;47551;52.506;4.678;2024-03-17T01:28:15;9.87;;;3.90;;
61642;SDS011;47551;52.506;4.678;2024-03-17T01:28:35;10.18;;;4.00;;
61642;SDS011;47551;52.506;4.678;2024-03-17T01:28:55;10.70;;;3.97;;
61642;SDS011;47551;52.506;4.678;2024-03-17T01:29:15;10.97;;;4.17;;
61642;SDS011;47551;52.506;4.678;2024-03-17T01:29:35;10.23;;;4.00;;
61642;SDS011;47551;52.506;4.678;2024-03-17T01:29:56;10.37;;;3.70;;
61642;SDS011;47551;52.506;4.678;2024-03-17T01:30:16;10.52;;;3.72;;
61642;SDS011;47551;52.506;4.678;2024-03-17T01:30:37;8.97;;;3.80;;
61642;SDS011;47551;52.506;4.678;2024-03-17T01:30:57;8.55;;;3.90;;
61642;SDS011;47551;52.506;4.678;2024-03-17T01:31:18;8.70;;;4.07;;
61642;SDS011;47551;52.506;4.678;2024-03-17T01:31:38;10.20;;;4.20;;
61642;SDS011;47551;52.506;4.678;2024-03-17T01:31:58;10.03;;;4.00;;
61642;SDS011;47551;52.506;4.678;2024-03-17T01:32:18;10.20;;;4.03;;
61642;SDS011;47551;52.506;4.678;2024-03-17T01:32:39;9.00;;;3.90;;
61642;SDS011;47551;52.506;4.678;2024-03-17T01:33:00;8.85;;;3.58;;
61642;SDS011;47551;52.506;4.678;2024-03-17T01:33:20;9.53;;;3.73;;
61642;SDS011;47551;52.506;4.678;2024-03-17T01:33:40;7.97;;;3.93;;
61642;SDS011;47551;52.506;4.678;2024-03-17T01:34:00;9.90;;;4.23;;
61642;SDS011;47551;52.506;4.678;2024-03-17T01:34:21;9.87;;;4.00;;
61642;SDS011;47551;52.506;4.678;2024-03-17T01:34:41;8.98;;;3.70;;
61642;SDS011;47551;52.506;4.678;2024-03-17T01:35:01;8.17;;;3.80;;
61642;SDS011;47551;52.506;4.678;2024-03-17T01:35:22;8.85;;;3.65;;
61642;SDS011;47551;52.506;4.678;2024-03-17T01:35:43;10.20;;;3.90;;
61642;SDS011;47551;52.506;4.678;2024-03-17T01:36:03;10.18;;;4.15;;
61642;SDS011;47551;52.506;4.678;2024-03-17T01:36:23;10.87;;;4.00;;
61642;SDS011;47551;52.506;4.678;2024-03-17T01:36:43;11.03;;;4.00;;
61642;SDS011;47551;52.506;4.678;2024-03-17T01:37:04;8.93;;;3.90;;
61642;SDS011;47551;52.506;4.678;2024-03-17T01:37:24;10.60;;;3.90;;
61642;SDS011;47551;52.506;4.678;2024-03-17T01:37:44;10.00;;;3.80;;
61642;SDS011;47551;52.506;4.678;2024-03-17T01:38:04;9.43;;;4.20;;
61642;SDS011;47551;52.506;4.678;2024-03-17T01:38:24;9.85;;;4.10;;
61642;SDS011;47551;52.506;4.678;2024-03-17T01:38:45;8.83;;;3.70;;
61642;SDS011;47551;52.506;4.678;2024-03-17T01:39:05;9.33;;;3.83;;
61642;SDS011;47551;52.506;4.678;2024-03-17T01:39:25;10.77;;;3.97;;
61642;SDS011;47551;52.506;4.678;2024-03-17T01:39:45;9.30;;;3.72;;
61642;SDS011;47551;52.506;4.678;2024-03-17T01:40:06;8.00;;;3.90;;
61642;SDS011;47551;52.506;4.678;2024-03-17T01:40:29;9.60;;;3.90;;
61642;SDS011;47551;52.506;4.678;2024-03-17T01:40:49;9.25;;;4.05;;
61642;SDS011;47551;52.506;4.678;2024-03-17T01:41:09;9.87;;;4.13;;
61642;SDS011;47551;52.506;4.678;2024-03-17T01:41:30;10.10;;;4.00;;
61642;SDS011;47551;52.506;4.678;2024-03-17T01:41:50;10.83;;;3.70;;
61642;SDS011;47551;52.506;4.678;2024-03-17T01:42:10;10.50;;;3.90;;
61642;SDS011;47551;52.506;4.678;2024-03-17T01:42:30;10.70;;;4.00;;
61642;SDS011;47551;52.506;4.678;2024-03-17T01:42:50;10.63;;;4.00;;
61642;SDS011;47551;52.506;4.678;2024-03-17T01:43:10;9.50;;;3.83;;
61642;SDS011;47551;52.506;4.678;2024-03-17T01:43:34;10.68;;;3.95;;
61642;SDS011;47551;52.506;4.678;2024-03-17T01:43:54;10.33;;;4.23;;
61642;SDS011;47551;52.506;4.678;2024-03-17T01:44:21;10.67;;;4.20;;
61642;SDS011;47551;52.506;4.678;2024-03-17T01:44:42;9.63;;;4.00;;
61642;SDS011;47551;52.506;4.678;2024-03-17T01:45:13;9.90;;;3.87;;
61642;SDS011;47551;52.506;4.678;2024-03-17T01:45:38;9.23;;;3.95;;
61642;SDS011;47551;52.506;4.678;2024-03-17T01:45:58;8.50;;;3.80;;
61642;SDS011;47551;52.506;4.678;2024-03-17T01:46:19;10.20;;;3.90;;
61642;SDS011;47551;52.506;4.678;2024-03-17T01:46:39;10.10;;;3.80;;
61642;SDS011;47551;52.506;4.678;2024-03-17T01:46:59;9.33;;;3.97;;
61642;SDS011;47551;52.506;4.678;2024-03-17T01:47:20;10.75;;;4.03;;
61642;SDS011;47551;52.506;4.678;2024-03-17T01:47:40;11.63;;;4.47;;
61642;SDS011;47551;52.506;4.678;2024-03-17T01:48:02;10.98;;;4.38;;
61642;SDS011;47551;52.506;4.678;2024-03-17T01:48:22;10.77;;;4.40;;
61642;SDS011;47551;52.506;4.678;2024-03-17T01:48:43;10.88;;;4.00;;
61642;SDS011;47551;52.506;4.678;2024-03-17T01:49:04;8.63;;;3.90;;
61642;SDS011;47551;52.506;4.678;2024-03-17T01:49:24;9.20;;;4.10;;
61642;SDS011;47551;52.506;4.678;2024-03-17T01:49:47;8.90;;;3.95;;
61642;SDS011;47551;52.506;4.678;2024-03-17T01:50:08;8.70;;;4.10;;
61642;SDS011;47551;52.506;4.678;2024-03-17T01:50:33;9.88;;;4.13;;
61642;SDS011;47551;52.506;4.678;2024-03-17T01:50:55;9.50;;;4.43;;
61642;SDS011;47551;52.506;4.678;2024-03-17T01:51:16;9.30;;;4.00;;
61642;SDS011;47551;52.506;4.678;2024-03-17T01:51:36;12.00;;;4.20;;
61642;SDS011;47551;52.506;4.678;2024-03-17T01:51:56;10.48;;;4.18;;
61642;SDS011;47551;52.506;4.678;2024-03-17T01:52:17;9.47;;;3.77;;
61642;SDS011;47551;52.506;4.678;2024-03-17T01:52:37;9.63;;;4.10;;
61642;SDS011;47551;52.506;4.678;2024-03-17T01:52:59;11.77;;;4.13;;
61642;SDS011;47551;52.506;4.678;2024-03-17T01:53:20;11.38;;;4.45;;
61642;SDS011;47551;52.506;4.678;2024-03-17T01:53:41;8.18;;;4.28;;
61642;SDS011;47551;52.506;4.678;2024-03-17T01:54:02;8.00;;;4.17;;
61642;SDS011;47551;52.506;4.678;2024-03-17T01:54:23;9.57;;;4.50;;
61642;SDS011;47551;52.506;4.678;2024-03-17T01:54:43;9.83;;;4.30;;
61642;SDS011;47551;52.506;4.678;2024-03-17T01:55:03;9.00;;;4.07;;
61642;SDS011;47551;52.506;4.678;2024-03-17T01:55:24;9.50;;;4.30;;
61642;SDS011;47551;52.506;4.678;2024-03-17T01:55:44;10.23;;;4.30;;
61642;SDS011;47551;52.506;4.678;2024-03-17T01:56:05;11.40;;;4.10;;
61642;SDS011;47551;52.506;4.678;2024-03-17T01:56:28;12.77;;;4.40;;
61642;SDS011;47551;52.506;4.678;2024-03-17T01:56:48;11.23;;;4.27;;
61642;SDS011;47551;52.506;4.678;2024-03-17T01:57:09;9.33;;;4.00;;
61642;SDS011;47551;52.506;4.678;2024-03-17T01:57:29;11.70;;;4.57;;
61642;SDS011;47551;52.506;4.678;2024-03-17T01:57:50;11.43;;;4.63;;
61642;SDS011;47551;52.506;4.678;2024-03-17T01:58:10;9.55;;;4.07;;
61642;SDS011;47551;52.506;4.678;2024-03-17T01:58:30;8.30;;;4.13;;
61642;SDS011;47551;52.506;4.678;2024-03-17T01:58:50;8.73;;;4.17;;
61642;SDS011;47551;52.506;4.678;2024-03-17T01:59:11;9.40;;;4.33;;
61642;SDS011;47551;52.506;4.678;2024-03-17T01:59:31;9.17;;;4.37;;
61642;SDS011;47551;52.506;4.678;2024-03-17T01:59:51;10.23;;;4.50;;
61642;SDS011;47551;52.506;4.678;2024-03-17T02:00:11;9.95;;;4.10;;
61642;SDS011;47551;52.506;4.678;2024-03-17T02:00:32;9.37;;;4.07;;
61642;SDS011;47551;52.506;4.678;2024-03-17T02:00:54;10.30;;;4.25;;
61642;SDS011;47551;52.506;4.678;2024-03-17T02:01:14;11.10;;;4.27;;
61642;SDS011;47551;52.506;4.678;2024-03-17T02:01:34;10.00;;;4.30;;
61642;SDS011;47551;52.506;4.678;2024-03-17T02:01:55;9.10;;;4.05;;
61642;SDS011;47551;52.506;4.678;2024-03-17T02:02:16;10.07;;;4.50;;
61642;SDS011;47551;52.506;4.678;2024-03-17T02:02:36;10.67;;;4.60;;
61642;SDS011;47551;52.506;4.678;2024-03-17T02:02:56;10.17;;;4.07;;
61642;SDS011;47551;52.506;4.678;2024-03-17T02:03:17;8.70;;;3.93;;
61642;SDS011;47551;52.506;4.678;2024-03-17T02:03:37;9.63;;;4.05;;